sensor_id;sensor_type;location;lat;lon;timestamp;pressure;altitude;pressure_sealevel;temperature
68939;BMP180;59064;45.294;11.816;2023-03-21T00:00:37;101651.00;;;7.20
68939;BMP180;59064;45.294;11.816;2023-03-21T00:03:02;101653.40;;;7.10
68939;BMP180;59064;45.294;11.816;2023-03-21T00:05:29;101644.60;;;7.10
68939;BMP180;59064;45.294;11.816;2023-03-21T00:07:55;101642.60;;;7.00
68939;BMP180;59064;45.294;11.816;2023-03-21T00:10:20;101638.20;;;7.00
68939;BMP180;59064;45.294;11.816;2023-03-21T00:12:46;101641.00;;;6.90
68939;BMP180;59064;45.294;11.816;2023-03-21T00:15:15;101641.20;;;6.90
68939;BMP180;59064;45.294;11.816;2023-03-21T00:17:43;101638.60;;;6.90
68939;BMP180;59064;45.294;11.816;2023-03-21T00:20:10;101636.20;;;6.80
68939;BMP180;59064;45.294;11.816;2023-03-21T00:22:39;101630.80;;;6.74
68939;BMP180;59064;45.294;11.816;2023-03-21T00:25:06;101625.00;;;6.70
68939;BMP180;59064;45.294;11.816;2023-03-21T00:27:33;101624.80;;;6.70
68939;BMP180;59064;45.294;11.816;2023-03-21T00:29:59;101623.60;;;6.62
68939;BMP180;59064;45.294;11.816;2023-03-21T00:32:25;101615.40;;;6.60
68939;BMP180;59064;45.294;11.816;2023-03-21T00:34:51;101609.20;;;6.60
68939;BMP180;59064;45.294;11.816;2023-03-21T00:37:17;101602.00;;;6.60
68939;BMP180;59064;45.294;11.816;2023-03-21T00:39:45;101598.60;;;6.60
68939;BMP180;59064;45.294;11.816;2023-03-21T00:42:14;101597.40;;;6.60
68939;BMP180;59064;45.294;11.816;2023-03-21T00:44:40;101598.00;;;6.60
68939;BMP180;59064;45.294;11.816;2023-03-21T00:47:06;101595.80;;;6.56
68939;BMP180;59064;45.294;11.816;2023-03-21T00:49:32;101592.40;;;6.50
68939;BMP180;59064;45.294;11.816;2023-03-21T00:52:05;101586.80;;;6.50
68939;BMP180;59064;45.294;11.816;2023-03-21T00:54:32;101583.60;;;6.42
68939;BMP180;59064;45.294;11.816;2023-03-21T00:56:58;101580.20;;;6.40
68939;BMP180;59064;45.294;11.816;2023-03-21T00:59:23;101583.00;;;6.40
68939;BMP180;59064;45.294;11.816;2023-03-21T01:01:49;101579.00;;;6.40
68939;BMP180;59064;45.294;11.816;2023-03-21T01:04:18;101575.20;;;6.40
68939;BMP180;59064;45.294;11.816;2023-03-21T01:06:46;101572.40;;;6.40
68939;BMP180;59064;45.294;11.816;2023-03-21T01:09:20;101572.40;;;6.40
68939;BMP180;59064;45.294;11.816;2023-03-21T01:11:47;101566.40;;;6.40
68939;BMP180;59064;45.294;11.816;2023-03-21T01:14:15;101564.20;;;6.32
68939;BMP180;59064;45.294;11.816;2023-03-21T01:16:42;101559.20;;;6.30
68939;BMP180;59064;45.294;11.816;2023-03-21T01:19:11;101553.40;;;6.30
68939;BMP180;59064;45.294;11.816;2023-03-21T01:21:37;101552.00;;;6.30
68939;BMP180;59064;45.294;11.816;2023-03-21T01:24:03;101551.40;;;6.20
68939;BMP180;59064;45.294;11.816;2023-03-21T01:26:28;101549.80;;;6.20
68939;BMP180;59064;45.294;11.816;2023-03-21T01:28:54;101549.60;;;6.20
68939;BMP180;59064;45.294;11.816;2023-03-21T01:31:19;101547.60;;;6.10
68939;BMP180;59064;45.294;11.816;2023-03-21T01:33:46;101547.60;;;6.10
68939;BMP180;59064;45.294;11.816;2023-03-21T01:36:21;101549.20;;;6.10
68939;BMP180;59064;45.294;11.816;2023-03-21T01:38:47;101544.00;;;6.10
68939;BMP180;59064;45.294;11.816;2023-03-21T01:41:20;101539.80;;;6.04
68939;BMP180;59064;45.294;11.816;2023-03-21T01:43:47;101538.00;;;6.06
68939;BMP180;59064;45.294;11.816;2023-03-21T01:48:55;101530.00;;;6.00
68939;BMP180;59064;45.294;11.816;2023-03-21T01:51:23;101525.40;;;6.00
68939;BMP180;59064;45.294;11.816;2023-03-21T01:53:50;101518.80;;;6.10
68939;BMP180;59064;45.294;11.816;2023-03-21T01:56:27;101515.60;;;6.20
68939;BMP180;59064;45.294;11.816;2023-03-21T01:58:58;101511.60;;;6.30
68939;BMP180;59064;45.294;11.816;2023-03-21T02:01:29;101515.20;;;6.40
68939;BMP180;59064;45.294;11.816;2023-03-21T02:03:56;101503.60;;;6.40
68939;BMP180;59064;45.294;11.816;2023-03-21T02:06:33;101501.40;;;6.40
68939;BMP180;59064;45.294;11.816;2023-03-21T02:09:04;101497.00;;;6.40
68939;BMP180;59064;45.294;11.816;2023-03-21T02:11:33;101497.00;;;6.40
68939;BMP180;59064;45.294;11.816;2023-03-21T02:14:00;101497.00;;;6.40
68939;BMP180;59064;45.294;11.816;2023-03-21T02:27:38;101493.80;;;6.50
68939;BMP180;59064;45.294;11.816;2023-03-21T02:30:23;101491.20;;;6.56
68939;BMP180;59064;45.294;11.816;2023-03-21T02:33:04;101495.60;;;6.26
68939;BMP180;59064;45.294;11.816;2023-03-21T02:51:15;101481.80;;;5.20
68939;BMP180;59064;45.294;11.816;2023-03-21T02:53:49;101483.20;;;5.14
68939;BMP180;59064;45.294;11.816;2023-03-21T02:56:15;101480.20;;;5.20
68939;BMP180;59064;45.294;11.816;2023-03-21T02:58:42;101481.80;;;5.20
68939;BMP180;59064;45.294;11.816;2023-03-21T03:01:08;101478.60;;;5.20
68939;BMP180;59064;45.294;11.816;2023-03-21T03:03:34;101476.80;;;5.20
68939;BMP180;59064;45.294;11.816;2023-03-21T03:06:09;101474.80;;;5.16
68939;BMP180;59064;45.294;11.816;2023-03-21T03:09:09;101476.40;;;5.20
68939;BMP180;59064;45.294;11.816;2023-03-21T03:11:42;101482.40;;;5.20
68939;BMP180;59064;45.294;11.816;2023-03-21T03:14:22;101477.80;;;5.20
68939;BMP180;59064;45.294;11.816;2023-03-21T03:17:09;101487.60;;;5.20
68939;BMP180;59064;45.294;11.816;2023-03-21T03:23:06;101482.20;;;5.30
68939;BMP180;59064;45.294;11.816;2023-03-21T03:26:11;101484.40;;;5.28
68939;BMP180;59064;45.294;11.816;2023-03-21T03:28:40;101487.20;;;5.24
68939;BMP180;59064;45.294;11.816;2023-03-21T03:31:10;101485.00;;;5.20
68939;BMP180;59064;45.294;11.816;2023-03-21T03:33:41;101481.60;;;5.20
68939;BMP180;59064;45.294;11.816;2023-03-21T03:36:10;101481.00;;;5.20
68939;BMP180;59064;45.294;11.816;2023-03-21T03:38:37;101483.00;;;5.20
68939;BMP180;59064;45.294;11.816;2023-03-21T03:41:09;101479.40;;;5.20
68939;BMP180;59064;45.294;11.816;2023-03-21T03:43:44;101476.00;;;5.20
68939;BMP180;59064;45.294;11.816;2023-03-21T03:46:18;101475.40;;;5.24
68939;BMP180;59064;45.294;11.816;2023-03-21T03:48:54;101475.00;;;5.28
68939;BMP180;59064;45.294;11.816;2023-03-21T03:51:28;101472.80;;;5.30
68939;BMP180;59064;45.294;11.816;2023-03-21T03:54:07;101472.80;;;5.20
68939;BMP180;59064;45.294;11.816;2023-03-21T03:56:34;101465.80;;;5.20
68939;BMP180;59064;45.294;11.816;2023-03-21T03:59:02;101464.40;;;5.18
68939;BMP180;59064;45.294;11.816;2023-03-21T04:01:29;101469.00;;;5.10
68939;BMP180;59064;45.294;11.816;2023-03-21T04:03:55;101475.00;;;5.10
68939;BMP180;59064;45.294;11.816;2023-03-21T04:06:20;101472.20;;;5.02
68939;BMP180;59064;45.294;11.816;2023-03-21T04:08:47;101471.80;;;4.98
68939;BMP180;59064;45.294;11.816;2023-03-21T04:11:13;101470.80;;;4.90
68939;BMP180;59064;45.294;11.816;2023-03-21T04:13:42;101469.40;;;4.84
68939;BMP180;59064;45.294;11.816;2023-03-21T04:16:08;101467.40;;;4.80
68939;BMP180;59064;45.294;11.816;2023-03-21T04:18:36;101471.00;;;4.80
68939;BMP180;59064;45.294;11.816;2023-03-21T04:21:07;101471.60;;;4.70
68939;BMP180;59064;45.294;11.816;2023-03-21T04:23:32;101473.60;;;4.70
68939;BMP180;59064;45.294;11.816;2023-03-21T04:26:00;101475.40;;;4.64
68939;BMP180;59064;45.294;11.816;2023-03-21T04:28:25;101476.60;;;4.60
68939;BMP180;59064;45.294;11.816;2023-03-21T04:30:51;101478.80;;;4.60
68939;BMP180;59064;45.294;11.816;2023-03-21T04:33:16;101477.00;;;4.50
68939;BMP180;59064;45.294;11.816;2023-03-21T04:35:42;101474.20;;;4.38
68939;BMP180;59064;45.294;11.816;2023-03-21T04:38:10;101475.00;;;4.30
68939;BMP180;59064;45.294;11.816;2023-03-21T04:40:35;101472.20;;;4.20
68939;BMP180;59064;45.294;11.816;2023-03-21T04:43:01;101467.40;;;4.20
68939;BMP180;59064;45.294;11.816;2023-03-21T04:45:27;101471.80;;;4.14
68939;BMP180;59064;45.294;11.816;2023-03-21T04:47:52;101473.40;;;4.10
68939;BMP180;59064;45.294;11.816;2023-03-21T04:50:18;101477.60;;;4.10
68939;BMP180;59064;45.294;11.816;2023-03-21T04:52:43;101477.40;;;4.10
68939;BMP180;59064;45.294;11.816;2023-03-21T04:55:09;101478.20;;;4.08
68939;BMP180;59064;45.294;11.816;2023-03-21T04:57:39;101476.60;;;4.00
68939;BMP180;59064;45.294;11.816;2023-03-21T05:00:06;101476.80;;;3.90
68939;BMP180;59064;45.294;11.816;2023-03-21T05:02:36;101477.80;;;3.82
68939;BMP180;59064;45.294;11.816;2023-03-21T05:05:02;101479.40;;;3.80
68939;BMP180;59064;45.294;11.816;2023-03-21T05:07:27;101483.80;;;3.72
68939;BMP180;59064;45.294;11.816;2023-03-21T05:09:55;101483.80;;;3.70
68939;BMP180;59064;45.294;11.816;2023-03-21T05:12:21;101482.40;;;3.72
68939;BMP180;59064;45.294;11.816;2023-03-21T05:14:46;101480.20;;;3.80
68939;BMP180;59064;45.294;11.816;2023-03-21T05:17:12;101481.80;;;3.80
68939;BMP180;59064;45.294;11.816;2023-03-21T05:19:51;101487.20;;;3.90
68939;BMP180;59064;45.294;11.816;2023-03-21T05:22:17;101489.40;;;3.96
68939;BMP180;59064;45.294;11.816;2023-03-21T05:24:44;101488.00;;;4.00
68939;BMP180;59064;45.294;11.816;2023-03-21T05:27:16;101484.40;;;4.00
68939;BMP180;59064;45.294;11.816;2023-03-21T05:30:10;101481.40;;;4.00
68939;BMP180;59064;45.294;11.816;2023-03-21T05:32:36;101490.60;;;4.04
68939;BMP180;59064;45.294;11.816;2023-03-21T05:35:03;101487.60;;;4.00
68939;BMP180;59064;45.294;11.816;2023-03-21T05:37:29;101485.80;;;4.00
68939;BMP180;59064;45.294;11.816;2023-03-21T05:39:54;101490.40;;;4.00
68939;BMP180;59064;45.294;11.816;2023-03-21T05:42:21;101492.60;;;4.10
68939;BMP180;59064;45.294;11.816;2023-03-21T05:44:47;101496.20;;;4.10
68939;BMP180;59064;45.294;11.816;2023-03-21T05:47:14;101504.00;;;4.20
68939;BMP180;59064;45.294;11.816;2023-03-21T05:49:40;101507.00;;;4.20
68939;BMP180;59064;45.294;11.816;2023-03-21T05:52:07;101509.80;;;4.20
68939;BMP180;59064;45.294;11.816;2023-03-21T05:54:36;101512.80;;;4.20
68939;BMP180;59064;45.294;11.816;2023-03-21T05:57:04;101513.00;;;4.20
68939;BMP180;59064;45.294;11.816;2023-03-21T05:59:29;101511.60;;;4.30
68939;BMP180;59064;45.294;11.816;2023-03-21T06:01:55;101515.60;;;4.40
68939;BMP180;59064;45.294;11.816;2023-03-21T06:04:21;101513.20;;;4.40
68939;BMP180;59064;45.294;11.816;2023-03-21T06:06:47;101514.40;;;4.50
68939;BMP180;59064;45.294;11.816;2023-03-21T06:09:13;101517.40;;;4.60
68939;BMP180;59064;45.294;11.816;2023-03-21T06:11:40;101519.40;;;4.80
68939;BMP180;59064;45.294;11.816;2023-03-21T06:14:08;101520.40;;;4.92
68939;BMP180;59064;45.294;11.816;2023-03-21T06:16:34;101519.20;;;5.10
68939;BMP180;59064;45.294;11.816;2023-03-21T06:18:59;101515.00;;;5.20
68939;BMP180;59064;45.294;11.816;2023-03-21T06:21:25;101516.40;;;5.40
68939;BMP180;59064;45.294;11.816;2023-03-21T06:23:51;101519.00;;;5.52
68939;BMP180;59064;45.294;11.816;2023-03-21T06:26:17;101515.80;;;5.70
68939;BMP180;59064;45.294;11.816;2023-03-21T06:28:51;101520.80;;;5.80
68939;BMP180;59064;45.294;11.816;2023-03-21T06:31:17;101519.60;;;6.00
68939;BMP180;59064;45.294;11.816;2023-03-21T06:33:44;101519.40;;;6.10
68939;BMP180;59064;45.294;11.816;2023-03-21T06:36:10;101523.40;;;6.30
68939;BMP180;59064;45.294;11.816;2023-03-21T06:38:36;101531.00;;;6.48
68939;BMP180;59064;45.294;11.816;2023-03-21T06:41:06;101528.80;;;6.60
68939;BMP180;59064;45.294;11.816;2023-03-21T06:43:32;101530.60;;;6.72
68939;BMP180;59064;45.294;11.816;2023-03-21T06:45:59;101534.60;;;6.90
68939;BMP180;59064;45.294;11.816;2023-03-21T06:48:26;101539.60;;;7.08
68939;BMP180;59064;45.294;11.816;2023-03-21T06:50:52;101547.40;;;7.24
68939;BMP180;59064;45.294;11.816;2023-03-21T06:53:19;101549.00;;;7.32
68939;BMP180;59064;45.294;11.816;2023-03-21T06:55:55;101545.60;;;7.40
68939;BMP180;59064;45.294;11.816;2023-03-21T06:58:22;101548.80;;;7.40
68939;BMP180;59064;45.294;11.816;2023-03-21T07:00:48;101551.60;;;7.48
68939;BMP180;59064;45.294;11.816;2023-03-21T07:03:14;101557.60;;;7.48
68939;BMP180;59064;45.294;11.816;2023-03-21T07:05:41;101557.80;;;7.40
68939;BMP180;59064;45.294;11.816;2023-03-21T07:08:08;101558.00;;;7.50
68939;BMP180;59064;45.294;11.816;2023-03-21T07:10:43;101556.80;;;7.60
68939;BMP180;59064;45.294;11.816;2023-03-21T07:13:10;101562.40;;;7.60
68939;BMP180;59064;45.294;11.816;2023-03-21T07:15:36;101563.40;;;7.60
68939;BMP180;59064;45.294;11.816;2023-03-21T07:18:07;101567.20;;;7.70
68939;BMP180;59064;45.294;11.816;2023-03-21T07:20:33;101563.60;;;7.74
68939;BMP180;59064;45.294;11.816;2023-03-21T07:22:59;101564.60;;;7.90
68939;BMP180;59064;45.294;11.816;2023-03-21T07:25:26;101565.00;;;8.20
68939;BMP180;59064;45.294;11.816;2023-03-21T07:27:53;101564.00;;;8.52
68939;BMP180;59064;45.294;11.816;2023-03-21T07:30:19;101564.20;;;8.76
68939;BMP180;59064;45.294;11.816;2023-03-21T07:32:44;101568.20;;;9.06
68939;BMP180;59064;45.294;11.816;2023-03-21T07:35:14;101570.20;;;9.20
68939;BMP180;59064;45.294;11.816;2023-03-21T07:37:41;101572.20;;;9.40
68939;BMP180;59064;45.294;11.816;2023-03-21T07:40:08;101568.60;;;9.60
68939;BMP180;59064;45.294;11.816;2023-03-21T07:42:35;101571.00;;;9.90
68939;BMP180;59064;45.294;11.816;2023-03-21T07:45:01;101567.20;;;10.28
68939;BMP180;59064;45.294;11.816;2023-03-21T07:47:30;101565.80;;;10.60
68939;BMP180;59064;45.294;11.816;2023-03-21T07:49:56;101563.20;;;10.92
68939;BMP180;59064;45.294;11.816;2023-03-21T07:52:23;101566.60;;;11.20
68939;BMP180;59064;45.294;11.816;2023-03-21T07:54:48;101564.00;;;11.52
68939;BMP180;59064;45.294;11.816;2023-03-21T07:57:14;101566.60;;;11.80
68939;BMP180;59064;45.294;11.816;2023-03-21T07:59:40;101569.20;;;12.00
68939;BMP180;59064;45.294;11.816;2023-03-21T08:02:06;101570.60;;;12.32
68939;BMP180;59064;45.294;11.816;2023-03-21T08:04:32;101575.00;;;12.60
68939;BMP180;59064;45.294;11.816;2023-03-21T08:06:59;101582.20;;;12.68
68939;BMP180;59064;45.294;11.816;2023-03-21T08:09:25;101584.60;;;13.00
68939;BMP180;59064;45.294;11.816;2023-03-21T08:11:51;101584.40;;;13.32
68939;BMP180;59064;45.294;11.816;2023-03-21T08:14:16;101584.80;;;13.60
68939;BMP180;59064;45.294;11.816;2023-03-21T08:16:42;101587.60;;;13.80
68939;BMP180;59064;45.294;11.816;2023-03-21T08:19:08;101589.00;;;14.02
68939;BMP180;59064;45.294;11.816;2023-03-21T08:21:34;101587.80;;;14.34
68939;BMP180;59064;45.294;11.816;2023-03-21T08:24:00;101583.00;;;14.50
68939;BMP180;59064;45.294;11.816;2023-03-21T08:26:26;101578.60;;;14.76
68939;BMP180;59064;45.294;11.816;2023-03-21T08:28:51;101579.20;;;15.00
68939;BMP180;59064;45.294;11.816;2023-03-21T08:31:17;101582.20;;;15.22
68939;BMP180;59064;45.294;11.816;2023-03-21T08:33:42;101583.60;;;15.40
68939;BMP180;59064;45.294;11.816;2023-03-21T08:36:09;101585.20;;;15.60
68939;BMP180;59064;45.294;11.816;2023-03-21T08:38:35;101581.80;;;15.80
68939;BMP180;59064;45.294;11.816;2023-03-21T08:41:01;101583.00;;;15.90
68939;BMP180;59064;45.294;11.816;2023-03-21T08:43:28;101584.80;;;16.12
68939;BMP180;59064;45.294;11.816;2023-03-21T08:45:55;101583.40;;;16.28
68939;BMP180;59064;45.294;11.816;2023-03-21T08:48:21;101582.20;;;16.30
68939;BMP180;59064;45.294;11.816;2023-03-21T08:50:47;101583.00;;;16.40
68939;BMP180;59064;45.294;11.816;2023-03-21T08:53:13;101579.60;;;16.48
68939;BMP180;59064;45.294;11.816;2023-03-21T08:55:39;101583.60;;;16.60
68939;BMP180;59064;45.294;11.816;2023-03-21T08:58:04;101580.60;;;16.42
68939;BMP180;59064;45.294;11.816;2023-03-21T09:00:31;101580.00;;;16.20
68939;BMP180;59064;45.294;11.816;2023-03-21T09:02:57;101584.60;;;16.20
68939;BMP180;59064;45.294;11.816;2023-03-21T09:05:23;101593.20;;;16.30
68939;BMP180;59064;45.294;11.816;2023-03-21T09:07:51;101594.40;;;16.22
68939;BMP180;59064;45.294;11.816;2023-03-21T09:10:20;101595.00;;;16.30
68939;BMP180;59064;45.294;11.816;2023-03-21T09:12:50;101591.00;;;16.20
68939;BMP180;59064;45.294;11.816;2023-03-21T09:15:16;101593.40;;;16.12
68939;BMP180;59064;45.294;11.816;2023-03-21T09:17:44;101594.00;;;16.20
68939;BMP180;59064;45.294;11.816;2023-03-21T09:20:15;101594.40;;;16.48
68939;BMP180;59064;45.294;11.816;2023-03-21T09:22:48;101596.80;;;16.88
68939;BMP180;59064;45.294;11.816;2023-03-21T09:25:15;101595.60;;;17.12
68939;BMP180;59064;45.294;11.816;2023-03-21T09:27:42;101596.20;;;17.50
68939;BMP180;59064;45.294;11.816;2023-03-21T09:30:12;101596.00;;;17.70
68939;BMP180;59064;45.294;11.816;2023-03-21T09:32:39;101600.00;;;17.80
68939;BMP180;59064;45.294;11.816;2023-03-21T09:35:05;101602.00;;;18.04
68939;BMP180;59064;45.294;11.816;2023-03-21T09:37:32;101594.40;;;18.18
68939;BMP180;59064;45.294;11.816;2023-03-21T09:39:58;101594.20;;;18.30
68939;BMP180;59064;45.294;11.816;2023-03-21T09:42:40;101593.40;;;18.50
68939;BMP180;59064;45.294;11.816;2023-03-21T09:45:17;101595.60;;;18.78
68939;BMP180;59064;45.294;11.816;2023-03-21T09:47:49;101589.80;;;18.90
68939;BMP180;59064;45.294;11.816;2023-03-21T09:50:19;101591.20;;;19.10
68939;BMP180;59064;45.294;11.816;2023-03-21T09:53:14;101585.60;;;19.46
68939;BMP180;59064;45.294;11.816;2023-03-21T09:55:44;101584.40;;;19.66
68939;BMP180;59064;45.294;11.816;2023-03-21T09:58:31;101578.60;;;19.46
68939;BMP180;59064;45.294;11.816;2023-03-21T10:01:15;101575.40;;;19.40
68939;BMP180;59064;45.294;11.816;2023-03-21T10:03:56;101572.00;;;19.50
68939;BMP180;59064;45.294;11.816;2023-03-21T10:06:26;101566.80;;;19.50
68939;BMP180;59064;45.294;11.816;2023-03-21T10:09:00;101565.00;;;19.40
68939;BMP180;59064;45.294;11.816;2023-03-21T10:11:44;101560.20;;;19.46
68939;BMP180;59064;45.294;11.816;2023-03-21T10:14:17;101554.80;;;19.70
68939;BMP180;59064;45.294;11.816;2023-03-21T10:16:47;101554.00;;;19.50
68939;BMP180;59064;45.294;11.816;2023-03-21T10:19:16;101555.20;;;19.52
68939;BMP180;59064;45.294;11.816;2023-03-21T10:21:45;101552.40;;;19.60
68939;BMP180;59064;45.294;11.816;2023-03-21T10:24:18;101552.40;;;19.50
68939;BMP180;59064;45.294;11.816;2023-03-21T10:26:46;101551.00;;;19.50
68939;BMP180;59064;45.294;11.816;2023-03-21T10:29:14;101552.60;;;19.62
68939;BMP180;59064;45.294;11.816;2023-03-21T10:31:41;101555.60;;;19.90
68939;BMP180;59064;45.294;11.816;2023-03-21T10:34:25;101556.60;;;19.60
68939;BMP180;59064;45.294;11.816;2023-03-21T10:36:55;101553.60;;;19.40
68939;BMP180;59064;45.294;11.816;2023-03-21T10:39:37;101554.00;;;19.40
68939;BMP180;59064;45.294;11.816;2023-03-21T10:42:05;101550.00;;;19.60
68939;BMP180;59064;45.294;11.816;2023-03-21T10:44:33;101552.00;;;19.80
68939;BMP180;59064;45.294;11.816;2023-03-21T10:47:05;101548.20;;;19.80
68939;BMP180;59064;45.294;11.816;2023-03-21T10:49:31;101550.40;;;20.06
68939;BMP180;59064;45.294;11.816;2023-03-21T10:52:01;101548.40;;;20.20
68939;BMP180;59064;45.294;11.816;2023-03-21T10:54:29;101545.00;;;20.10
68939;BMP180;59064;45.294;11.816;2023-03-21T10:57:05;101551.20;;;20.20
68939;BMP180;59064;45.294;11.816;2023-03-21T10:59:45;101551.00;;;20.50
68939;BMP180;59064;45.294;11.816;2023-03-21T11:02:36;101549.20;;;20.50
68939;BMP180;59064;45.294;11.816;2023-03-21T11:05:04;101545.00;;;20.54
68939;BMP180;59064;45.294;11.816;2023-03-21T11:07:30;101539.20;;;20.50
68939;BMP180;59064;45.294;11.816;2023-03-21T11:09:58;101542.40;;;20.70
68939;BMP180;59064;45.294;11.816;2023-03-21T11:12:36;101538.80;;;21.00
68939;BMP180;59064;45.294;11.816;2023-03-21T11:17:47;101534.60;;;21.48
68939;BMP180;59064;45.294;11.816;2023-03-21T11:20:17;101542.00;;;21.42
68939;BMP180;59064;45.294;11.816;2023-03-21T11:22:44;101536.00;;;21.32
68939;BMP180;59064;45.294;11.816;2023-03-21T11:25:26;101535.40;;;21.50
68939;BMP180;59064;45.294;11.816;2023-03-21T11:27:58;101530.60;;;21.40
68939;BMP180;59064;45.294;11.816;2023-03-21T11:30:30;101524.40;;;21.46
68939;BMP180;59064;45.294;11.816;2023-03-21T11:33:01;101518.60;;;21.66
68939;BMP180;59064;45.294;11.816;2023-03-21T11:35:37;101510.60;;;21.90
68939;BMP180;59064;45.294;11.816;2023-03-21T11:38:05;101511.80;;;22.12
68939;BMP180;59064;45.294;11.816;2023-03-21T11:40:35;101508.00;;;22.28
68939;BMP180;59064;45.294;11.816;2023-03-21T11:46:06;101507.20;;;22.44
68939;BMP180;59064;45.294;11.816;2023-03-21T11:48:44;101511.00;;;22.50
68939;BMP180;59064;45.294;11.816;2023-03-21T11:51:33;101511.60;;;22.60
68939;BMP180;59064;45.294;11.816;2023-03-21T12:05:18;101494.00;;;23.82
68939;BMP180;59064;45.294;11.816;2023-03-21T12:10:47;101488.00;;;23.90
68939;BMP180;59064;45.294;11.816;2023-03-21T12:16:27;101484.00;;;24.30
68939;BMP180;59064;45.294;11.816;2023-03-21T12:40:44;101440.80;;;25.40
68939;BMP180;59064;45.294;11.816;2023-03-21T12:45:45;101439.20;;;25.70
68939;BMP180;59064;45.294;11.816;2023-03-21T12:48:46;101434.20;;;25.40
68939;BMP180;59064;45.294;11.816;2023-03-21T12:51:17;101435.80;;;25.38
68939;BMP180;59064;45.294;11.816;2023-03-21T12:56:16;101428.00;;;25.00
68939;BMP180;59064;45.294;11.816;2023-03-21T12:58:48;101426.80;;;25.16
68939;BMP180;59064;45.294;11.816;2023-03-21T13:01:18;101423.00;;;25.50
68939;BMP180;59064;45.294;11.816;2023-03-21T13:03:50;101424.00;;;25.68
68939;BMP180;59064;45.294;11.816;2023-03-21T13:06:21;101419.40;;;25.58
68939;BMP180;59064;45.294;11.816;2023-03-21T13:09:06;101414.80;;;25.68
68939;BMP180;59064;45.294;11.816;2023-03-21T13:11:36;101415.00;;;25.70
68939;BMP180;59064;45.294;11.816;2023-03-21T13:22:00;101407.40;;;26.10
68939;BMP180;59064;45.294;11.816;2023-03-21T13:24:47;101403.00;;;25.56
68939;BMP180;59064;45.294;11.816;2023-03-21T13:27:30;101399.00;;;25.70
68939;BMP180;59064;45.294;11.816;2023-03-21T13:30:16;101397.20;;;25.68
68939;BMP180;59064;45.294;11.816;2023-03-21T13:32:45;101393.20;;;25.16
68939;BMP180;59064;45.294;11.816;2023-03-21T13:35:22;101391.60;;;24.80
68939;BMP180;59064;45.294;11.816;2023-03-21T13:37:55;101390.20;;;24.66
68939;BMP180;59064;45.294;11.816;2023-03-21T13:42:57;101386.20;;;25.00
68939;BMP180;59064;45.294;11.816;2023-03-21T13:45:45;101385.80;;;25.32
68939;BMP180;59064;45.294;11.816;2023-03-21T13:48:29;101379.80;;;25.22
68939;BMP180;59064;45.294;11.816;2023-03-21T13:50:59;101376.20;;;25.40
68939;BMP180;59064;45.294;11.816;2023-03-21T13:53:41;101372.00;;;25.76
68939;BMP180;59064;45.294;11.816;2023-03-21T14:03:43;101359.60;;;26.54
68939;BMP180;59064;45.294;11.816;2023-03-21T14:06:10;101354.80;;;26.54
68939;BMP180;59064;45.294;11.816;2023-03-21T14:08:39;101352.40;;;26.70
68939;BMP180;59064;45.294;11.816;2023-03-21T14:11:09;101355.00;;;26.80
68939;BMP180;59064;45.294;11.816;2023-03-21T14:13:37;101353.60;;;26.68
68939;BMP180;59064;45.294;11.816;2023-03-21T14:16:09;101352.80;;;26.62
68939;BMP180;59064;45.294;11.816;2023-03-21T14:19:03;101354.40;;;26.80
68939;BMP180;59064;45.294;11.816;2023-03-21T14:21:34;101350.00;;;27.00
68939;BMP180;59064;45.294;11.816;2023-03-21T14:24:06;101353.40;;;27.10
68939;BMP180;59064;45.294;11.816;2023-03-21T14:26:50;101348.20;;;27.00
68939;BMP180;59064;45.294;11.816;2023-03-21T14:31:46;101334.40;;;27.10
68939;BMP180;59064;45.294;11.816;2023-03-21T14:34:13;101333.00;;;27.14
68939;BMP180;59064;45.294;11.816;2023-03-21T14:36:42;101332.60;;;26.88
68939;BMP180;59064;45.294;11.816;2023-03-21T14:39:15;101327.40;;;26.70
68939;BMP180;59064;45.294;11.816;2023-03-21T14:41:50;101316.60;;;26.50
68939;BMP180;59064;45.294;11.816;2023-03-21T14:44:26;101319.20;;;26.50
68939;BMP180;59064;45.294;11.816;2023-03-21T14:47:15;101321.60;;;26.30
68939;BMP180;59064;45.294;11.816;2023-03-21T14:49:41;101318.20;;;26.06
68939;BMP180;59064;45.294;11.816;2023-03-21T14:52:15;101320.00;;;25.90
68939;BMP180;59064;45.294;11.816;2023-03-21T14:54:44;101321.20;;;26.16
68939;BMP180;59064;45.294;11.816;2023-03-21T14:57:13;101310.00;;;26.10
68939;BMP180;59064;45.294;11.816;2023-03-21T14:59:40;101310.20;;;26.00
68939;BMP180;59064;45.294;11.816;2023-03-21T15:02:31;101308.00;;;25.86
68939;BMP180;59064;45.294;11.816;2023-03-21T15:05:07;101306.60;;;25.98
68939;BMP180;59064;45.294;11.816;2023-03-21T15:07:34;101305.80;;;26.20
68939;BMP180;59064;45.294;11.816;2023-03-21T15:10:06;101298.60;;;26.24
68939;BMP180;59064;45.294;11.816;2023-03-21T15:12:32;101298.40;;;25.92
68939;BMP180;59064;45.294;11.816;2023-03-21T15:14:59;101295.60;;;25.80
68939;BMP180;59064;45.294;11.816;2023-03-21T15:17:26;101294.80;;;25.58
68939;BMP180;59064;45.294;11.816;2023-03-21T15:19:52;101296.60;;;25.20
68939;BMP180;59064;45.294;11.816;2023-03-21T15:22:36;101293.80;;;25.20
68939;BMP180;59064;45.294;11.816;2023-03-21T15:25:05;101296.60;;;25.40
68939;BMP180;59064;45.294;11.816;2023-03-21T15:27:38;101300.00;;;25.50
68939;BMP180;59064;45.294;11.816;2023-03-21T15:30:05;101296.40;;;25.36
68939;BMP180;59064;45.294;11.816;2023-03-21T15:32:34;101295.00;;;25.20
68939;BMP180;59064;45.294;11.816;2023-03-21T15:35:10;101293.60;;;25.20
68939;BMP180;59064;45.294;11.816;2023-03-21T15:37:37;101297.60;;;24.86
68939;BMP180;59064;45.294;11.816;2023-03-21T15:40:25;101294.40;;;24.54
68939;BMP180;59064;45.294;11.816;2023-03-21T15:43:05;101293.40;;;24.40
68939;BMP180;59064;45.294;11.816;2023-03-21T15:45:31;101291.80;;;24.30
68939;BMP180;59064;45.294;11.816;2023-03-21T15:48:06;101290.20;;;24.14
68939;BMP180;59064;45.294;11.816;2023-03-21T15:50:37;101287.80;;;23.90